sensor_id;sensor_type;location;lat;lon;timestamp;P1;durP1;ratioP1;P2;durP2;ratioP2
17604;SDS011;8921;50.964;6.800;2023-04-03T00:00:51;8.87;;;6.00;;
17604;SDS011;8921;50.964;6.800;2023-04-03T00:03:19;8.80;;;6.53;;
17604;SDS011;8921;50.964;6.800;2023-04-03T00:05:47;9.33;;;6.30;;
17604;SDS011;8921;50.964;6.800;2023-04-03T00:08:15;12.43;;;7.30;;
17604;SDS011;8921;50.964;6.800;2023-04-03T00:10:44;12.03;;;7.40;;
17604;SDS011;8921;50.964;6.800;2023-04-03T00:13:12;10.30;;;7.27;;
17604;SDS011;8921;50.964;6.800;2023-04-03T00:15:40;10.33;;;7.13;;
17604;SDS011;8921;50.964;6.800;2023-04-03T00:18:09;8.77;;;6.70;;
17604;SDS011;8921;50.964;6.800;2023-04-03T00:20:37;14.47;;;7.00;;
17604;SDS011;8921;50.964;6.800;2023-04-03T00:23:05;9.93;;;7.23;;
17604;SDS011;8921;50.964;6.800;2023-04-03T00:25:33;9.03;;;7.13;;
17604;SDS011;8921;50.964;6.800;2023-04-03T00:28:02;11.10;;;6.80;;
17604;SDS011;8921;50.964;6.800;2023-04-03T00:30:30;9.80;;;7.20;;
17604;SDS011;8921;50.964;6.800;2023-04-03T00:32:58;10.40;;;6.80;;
17604;SDS011;8921;50.964;6.800;2023-04-03T00:35:27;9.00;;;6.97;;
17604;SDS011;8921;50.964;6.800;2023-04-03T00:37:55;9.17;;;7.93;;
17604;SDS011;8921;50.964;6.800;2023-04-03T00:40:24;12.53;;;9.33;;
17604;SDS011;8921;50.964;6.800;2023-04-03T00:42:54;21.07;;;11.10;;
17604;SDS011;8921;50.964;6.800;2023-04-03T00:45:24;25.80;;;11.20;;
17604;SDS011;8921;50.964;6.800;2023-04-03T00:47:48;24.03;;;13.47;;
17604;SDS011;8921;50.964;6.800;2023-04-03T00:50:17;20.40;;;12.20;;
17604;SDS011;8921;50.964;6.800;2023-04-03T00:52:45;21.87;;;13.03;;
17604;SDS011;8921;50.964;6.800;2023-04-03T00:55:13;17.67;;;10.27;;
17604;SDS011;8921;50.964;6.800;2023-04-03T00:57:41;19.20;;;10.30;;
17604;SDS011;8921;50.964;6.800;2023-04-03T01:00:11;14.30;;;10.13;;
17604;SDS011;8921;50.964;6.800;2023-04-03T01:02:38;15.77;;;9.80;;
17604;SDS011;8921;50.964;6.800;2023-04-03T01:05:06;13.53;;;8.80;;
17604;SDS011;8921;50.964;6.800;2023-04-03T01:07:35;17.60;;;8.47;;
17604;SDS011;8921;50.964;6.800;2023-04-03T01:10:05;13.60;;;8.10;;
17604;SDS011;8921;50.964;6.800;2023-04-03T01:12:33;10.33;;;7.90;;
17604;SDS011;8921;50.964;6.800;2023-04-03T01:15:15;14.47;;;7.83;;
17604;SDS011;8921;50.964;6.800;2023-04-03T01:17:44;13.33;;;8.40;;
17604;SDS011;8921;50.964;6.800;2023-04-03T01:28:10;12.03;;;8.20;;
17604;SDS011;8921;50.964;6.800;2023-04-03T01:31:21;12.10;;;8.03;;
17604;SDS011;8921;50.964;6.800;2023-04-03T01:33:07;11.07;;;8.10;;
17604;SDS011;8921;50.964;6.800;2023-04-03T01:35:37;10.73;;;7.70;;
17604;SDS011;8921;50.964;6.800;2023-04-03T01:38:04;14.83;;;8.40;;
17604;SDS011;8921;50.964;6.800;2023-04-03T01:40:32;9.97;;;8.03;;
17604;SDS011;8921;50.964;6.800;2023-04-03T01:43:01;12.60;;;8.20;;
17604;SDS011;8921;50.964;6.800;2023-04-03T01:45:29;12.33;;;7.80;;
17604;SDS011;8921;50.964;6.800;2023-04-03T01:47:57;10.60;;;7.93;;
17604;SDS011;8921;50.964;6.800;2023-04-03T01:50:25;11.27;;;8.17;;
17604;SDS011;8921;50.964;6.800;2023-04-03T01:52:54;12.00;;;8.60;;
17604;SDS011;8921;50.964;6.800;2023-04-03T01:55:22;14.50;;;9.00;;
17604;SDS011;8921;50.964;6.800;2023-04-03T01:57:50;15.53;;;8.50;;
17604;SDS011;8921;50.964;6.800;2023-04-03T02:00:19;12.50;;;9.23;;
17604;SDS011;8921;50.964;6.800;2023-04-03T02:02:47;11.60;;;8.80;;
17604;SDS011;8921;50.964;6.800;2023-04-03T02:05:15;15.60;;;9.87;;
17604;SDS011;8921;50.964;6.800;2023-04-03T02:07:43;12.00;;;9.40;;
17604;SDS011;8921;50.964;6.800;2023-04-03T02:10:12;11.67;;;9.23;;
17604;SDS011;8921;50.964;6.800;2023-04-03T02:12:40;11.33;;;8.17;;
17604;SDS011;8921;50.964;6.800;2023-04-03T02:15:08;12.67;;;9.77;;
17604;SDS011;8921;50.964;6.800;2023-04-03T02:17:37;14.60;;;9.20;;
17604;SDS011;8921;50.964;6.800;2023-04-03T02:20:05;10.90;;;8.43;;
17604;SDS011;8921;50.964;6.800;2023-04-03T02:22:34;10.63;;;9.10;;
17604;SDS011;8921;50.964;6.800;2023-04-03T02:25:02;16.60;;;9.40;;
17604;SDS011;8921;50.964;6.800;2023-04-03T02:27:30;12.53;;;9.87;;
17604;SDS011;8921;50.964;6.800;2023-04-03T02:29:58;11.07;;;8.63;;
17604;SDS011;8921;50.964;6.800;2023-04-03T02:32:27;12.60;;;9.80;;
17604;SDS011;8921;50.964;6.800;2023-04-03T02:34:55;13.77;;;10.37;;
17604;SDS011;8921;50.964;6.800;2023-04-03T02:37:23;15.67;;;10.30;;
17604;SDS011;8921;50.964;6.800;2023-04-03T02:39:52;13.30;;;10.70;;
17604;SDS011;8921;50.964;6.800;2023-04-03T02:42:20;11.77;;;9.50;;
17604;SDS011;8921;50.964;6.800;2023-04-03T02:44:48;14.73;;;11.07;;
17604;SDS011;8921;50.964;6.800;2023-04-03T02:47:16;16.20;;;10.90;;
17604;SDS011;8921;50.964;6.800;2023-04-03T02:49:45;15.57;;;11.10;;
17604;SDS011;8921;50.964;6.800;2023-04-03T02:52:13;12.73;;;10.70;;
17604;SDS011;8921;50.964;6.800;2023-04-03T02:54:41;13.53;;;10.63;;
17604;SDS011;8921;50.964;6.800;2023-04-03T02:57:09;12.20;;;9.97;;
17604;SDS011;8921;50.964;6.800;2023-04-03T02:59:38;15.63;;;10.40;;
17604;SDS011;8921;50.964;6.800;2023-04-03T03:02:08;14.40;;;11.20;;
17604;SDS011;8921;50.964;6.800;2023-04-03T03:04:34;13.63;;;10.30;;
17604;SDS011;8921;50.964;6.800;2023-04-03T03:07:03;12.70;;;10.80;;
17604;SDS011;8921;50.964;6.800;2023-04-03T03:09:31;12.90;;;10.33;;
17604;SDS011;8921;50.964;6.800;2023-04-03T03:11:59;16.93;;;10.43;;
17604;SDS011;8921;50.964;6.800;2023-04-03T03:14:27;14.93;;;10.80;;
17604;SDS011;8921;50.964;6.800;2023-04-03T03:16:56;12.00;;;10.60;;
17604;SDS011;8921;50.964;6.800;2023-04-03T03:19:24;12.40;;;10.37;;
17604;SDS011;8921;50.964;6.800;2023-04-03T03:21:52;14.17;;;10.90;;
17604;SDS011;8921;50.964;6.800;2023-04-03T03:24:21;12.80;;;9.83;;
17604;SDS011;8921;50.964;6.800;2023-04-03T03:26:49;16.07;;;10.70;;
17604;SDS011;8921;50.964;6.800;2023-04-03T03:29:17;11.10;;;9.57;;
17604;SDS011;8921;50.964;6.800;2023-04-03T03:31:51;14.60;;;10.03;;
17604;SDS011;8921;50.964;6.800;2023-04-03T03:34:19;13.90;;;9.73;;
17604;SDS011;8921;50.964;6.800;2023-04-03T03:36:47;12.57;;;9.50;;
17604;SDS011;8921;50.964;6.800;2023-04-03T03:39:16;13.47;;;9.53;;
17604;SDS011;8921;50.964;6.800;2023-04-03T03:41:44;14.77;;;10.47;;
17604;SDS011;8921;50.964;6.800;2023-04-03T03:44:12;13.30;;;9.87;;
17604;SDS011;8921;50.964;6.800;2023-04-03T03:46:40;13.10;;;9.37;;
17604;SDS011;8921;50.964;6.800;2023-04-03T03:49:09;12.57;;;9.80;;
17604;SDS011;8921;50.964;6.800;2023-04-03T03:51:38;11.93;;;9.80;;
17604;SDS011;8921;50.964;6.800;2023-04-03T03:54:05;12.37;;;9.20;;
17604;SDS011;8921;50.964;6.800;2023-04-03T03:56:34;12.30;;;10.37;;
17604;SDS011;8921;50.964;6.800;2023-04-03T03:59:02;16.90;;;10.10;;
17604;SDS011;8921;50.964;6.800;2023-04-03T04:01:30;13.80;;;9.10;;
17604;SDS011;8921;50.964;6.800;2023-04-03T04:03:58;14.43;;;8.50;;
17604;SDS011;8921;50.964;6.800;2023-04-03T04:06:27;16.40;;;10.10;;
17604;SDS011;8921;50.964;6.800;2023-04-03T04:08:55;11.37;;;9.33;;
17604;SDS011;8921;50.964;6.800;2023-04-03T04:11:23;16.93;;;9.60;;
17604;SDS011;8921;50.964;6.800;2023-04-03T04:13:52;11.87;;;10.07;;
17604;SDS011;8921;50.964;6.800;2023-04-03T04:16:20;13.50;;;9.77;;
17604;SDS011;8921;50.964;6.800;2023-04-03T04:18:48;28.67;;;11.97;;
17604;SDS011;8921;50.964;6.800;2023-04-03T04:21:16;16.13;;;9.57;;
17604;SDS011;8921;50.964;6.800;2023-04-03T04:23:45;13.23;;;10.60;;
17604;SDS011;8921;50.964;6.800;2023-04-03T04:26:13;13.70;;;10.60;;
17604;SDS011;8921;50.964;6.800;2023-04-03T04:28:41;12.63;;;9.90;;
17604;SDS011;8921;50.964;6.800;2023-04-03T04:31:09;11.90;;;10.10;;
17604;SDS011;8921;50.964;6.800;2023-04-03T04:33:38;29.53;;;18.70;;
17604;SDS011;8921;50.964;6.800;2023-04-03T04:36:06;18.80;;;13.00;;
17604;SDS011;8921;50.964;6.800;2023-04-03T04:38:34;16.43;;;10.97;;
17604;SDS011;8921;50.964;6.800;2023-04-03T04:41:03;14.57;;;10.00;;
17604;SDS011;8921;50.964;6.800;2023-04-03T04:43:31;14.27;;;9.80;;
17604;SDS011;8921;50.964;6.800;2023-04-03T04:46:03;14.33;;;10.70;;
17604;SDS011;8921;50.964;6.800;2023-04-03T04:48:34;28.67;;;19.10;;
17604;SDS011;8921;50.964;6.800;2023-04-03T04:51:02;15.10;;;11.13;;
17604;SDS011;8921;50.964;6.800;2023-04-03T04:53:30;16.83;;;10.73;;
17604;SDS011;8921;50.964;6.800;2023-04-03T04:55:58;19.77;;;13.70;;
17604;SDS011;8921;50.964;6.800;2023-04-03T04:58:27;15.90;;;10.70;;
17604;SDS011;8921;50.964;6.800;2023-04-03T05:00:59;13.77;;;9.07;;
17604;SDS011;8921;50.964;6.800;2023-04-03T05:03:29;11.60;;;9.20;;
17604;SDS011;8921;50.964;6.800;2023-04-03T05:05:57;12.53;;;9.50;;
17604;SDS011;8921;50.964;6.800;2023-04-03T05:08:26;11.53;;;8.87;;
17604;SDS011;8921;50.964;6.800;2023-04-03T05:10:54;12.10;;;8.80;;
17604;SDS011;8921;50.964;6.800;2023-04-03T05:13:22;11.20;;;8.57;;
17604;SDS011;8921;50.964;6.800;2023-04-03T05:15:51;11.07;;;8.90;;
17604;SDS011;8921;50.964;6.800;2023-04-03T05:18:19;13.93;;;9.50;;
17604;SDS011;8921;50.964;6.800;2023-04-03T05:20:50;11.07;;;8.37;;
17604;SDS011;8921;50.964;6.800;2023-04-03T05:23:18;13.00;;;9.67;;
17604;SDS011;8921;50.964;6.800;2023-04-03T05:25:47;11.00;;;8.20;;
17604;SDS011;8921;50.964;6.800;2023-04-03T05:28:15;15.17;;;9.57;;
17604;SDS011;8921;50.964;6.800;2023-04-03T05:30:43;16.20;;;12.00;;
17604;SDS011;8921;50.964;6.800;2023-04-03T05:33:12;12.40;;;8.47;;
17604;SDS011;8921;50.964;6.800;2023-04-03T05:35:40;11.97;;;9.30;;
17604;SDS011;8921;50.964;6.800;2023-04-03T05:38:08;14.80;;;9.30;;
17604;SDS011;8921;50.964;6.800;2023-04-03T05:40:36;13.27;;;8.43;;
17604;SDS011;8921;50.964;6.800;2023-04-03T05:43:05;13.10;;;8.67;;
17604;SDS011;8921;50.964;6.800;2023-04-03T05:45:33;22.80;;;10.23;;
17604;SDS011;8921;50.964;6.800;2023-04-03T05:48:01;12.10;;;8.50;;
17604;SDS011;8921;50.964;6.800;2023-04-03T05:50:30;15.70;;;10.30;;
17604;SDS011;8921;50.964;6.800;2023-04-03T05:52:58;15.10;;;8.40;;
17604;SDS011;8921;50.964;6.800;2023-04-03T05:55:26;11.60;;;7.40;;
17604;SDS011;8921;50.964;6.800;2023-04-03T05:57:54;9.33;;;6.73;;
17604;SDS011;8921;50.964;6.800;2023-04-03T06:00:23;13.13;;;7.07;;
17604;SDS011;8921;50.964;6.800;2023-04-03T06:02:51;9.73;;;5.70;;
17604;SDS011;8921;50.964;6.800;2023-04-03T06:05:19;7.43;;;5.73;;
17604;SDS011;8921;50.964;6.800;2023-04-03T06:07:47;8.00;;;5.70;;
17604;SDS011;8921;50.964;6.800;2023-04-03T06:10:16;8.17;;;5.10;;
17604;SDS011;8921;50.964;6.800;2023-04-03T06:12:44;8.47;;;5.57;;
17604;SDS011;8921;50.964;6.800;2023-04-03T06:15:12;7.17;;;5.33;;
17604;SDS011;8921;50.964;6.800;2023-04-03T06:17:41;12.00;;;7.97;;
17604;SDS011;8921;50.964;6.800;2023-04-03T06:20:10;7.60;;;4.60;;
17604;SDS011;8921;50.964;6.800;2023-04-03T06:22:38;8.93;;;4.73;;
17604;SDS011;8921;50.964;6.800;2023-04-03T06:25:06;7.70;;;4.90;;
17604;SDS011;8921;50.964;6.800;2023-04-03T06:27:34;11.13;;;5.13;;
17604;SDS011;8921;50.964;6.800;2023-04-03T06:30:03;9.20;;;4.90;;
17604;SDS011;8921;50.964;6.800;2023-04-03T06:32:31;7.50;;;4.47;;
17604;SDS011;8921;50.964;6.800;2023-04-03T06:34:59;8.40;;;4.30;;
17604;SDS011;8921;50.964;6.800;2023-04-03T06:37:28;8.30;;;4.47;;
17604;SDS011;8921;50.964;6.800;2023-04-03T06:39:56;7.00;;;4.07;;
17604;SDS011;8921;50.964;6.800;2023-04-03T06:42:24;7.07;;;4.60;;
17604;SDS011;8921;50.964;6.800;2023-04-03T06:44:52;6.13;;;4.10;;
17604;SDS011;8921;50.964;6.800;2023-04-03T06:47:21;9.60;;;3.90;;
17604;SDS011;8921;50.964;6.800;2023-04-03T06:49:49;12.10;;;5.13;;
17604;SDS011;8921;50.964;6.800;2023-04-03T06:52:17;7.63;;;3.67;;
17604;SDS011;8921;50.964;6.800;2023-04-03T06:54:45;8.63;;;3.63;;
17604;SDS011;8921;50.964;6.800;2023-04-03T06:57:14;5.90;;;3.10;;
17604;SDS011;8921;50.964;6.800;2023-04-03T06:59:42;7.10;;;3.03;;
17604;SDS011;8921;50.964;6.800;2023-04-03T07:02:11;7.77;;;3.17;;
17604;SDS011;8921;50.964;6.800;2023-04-03T07:04:39;7.00;;;3.30;;
17604;SDS011;8921;50.964;6.800;2023-04-03T07:07:07;8.93;;;3.60;;
17604;SDS011;8921;50.964;6.800;2023-04-03T07:09:35;7.70;;;3.57;;
17604;SDS011;8921;50.964;6.800;2023-04-03T07:12:03;9.50;;;3.13;;
17604;SDS011;8921;50.964;6.800;2023-04-03T07:14:32;5.90;;;2.70;;
17604;SDS011;8921;50.964;6.800;2023-04-03T07:17:00;8.03;;;3.17;;
17604;SDS011;8921;50.964;6.800;2023-04-03T07:19:28;7.07;;;3.23;;
17604;SDS011;8921;50.964;6.800;2023-04-03T07:21:56;11.03;;;3.27;;
17604;SDS011;8921;50.964;6.800;2023-04-03T07:24:25;7.50;;;2.87;;
17604;SDS011;8921;50.964;6.800;2023-04-03T07:26:53;6.87;;;2.30;;
17604;SDS011;8921;50.964;6.800;2023-04-03T07:29:21;7.87;;;1.90;;
17604;SDS011;8921;50.964;6.800;2023-04-03T07:31:50;5.43;;;2.17;;
17604;SDS011;8921;50.964;6.800;2023-04-03T07:34:18;6.70;;;2.80;;
17604;SDS011;8921;50.964;6.800;2023-04-03T07:36:46;5.63;;;1.93;;
17604;SDS011;8921;50.964;6.800;2023-04-03T07:39:14;7.17;;;1.80;;
17604;SDS011;8921;50.964;6.800;2023-04-03T07:41:43;15.87;;;2.67;;
17604;SDS011;8921;50.964;6.800;2023-04-03T07:44:11;5.20;;;1.70;;
17604;SDS011;8921;50.964;6.800;2023-04-03T07:46:39;9.80;;;2.20;;
17604;SDS011;8921;50.964;6.800;2023-04-03T07:49:07;5.27;;;1.87;;
17604;SDS011;8921;50.964;6.800;2023-04-03T07:51:36;8.23;;;2.37;;
17604;SDS011;8921;50.964;6.800;2023-04-03T07:54:04;5.97;;;1.93;;
17604;SDS011;8921;50.964;6.800;2023-04-03T07:56:32;9.43;;;2.17;;
17604;SDS011;8921;50.964;6.800;2023-04-03T07:59:01;5.00;;;1.93;;
17604;SDS011;8921;50.964;6.800;2023-04-03T08:01:29;12.00;;;2.37;;
17604;SDS011;8921;50.964;6.800;2023-04-03T08:03:57;5.77;;;1.87;;
17604;SDS011;8921;50.964;6.800;2023-04-03T08:06:25;6.93;;;2.07;;
17604;SDS011;8921;50.964;6.800;2023-04-03T08:08:54;6.27;;;1.70;;
17604;SDS011;8921;50.964;6.800;2023-04-03T08:11:22;9.83;;;2.37;;
17604;SDS011;8921;50.964;6.800;2023-04-03T08:13:50;10.37;;;3.00;;
17604;SDS011;8921;50.964;6.800;2023-04-03T08:16:20;11.10;;;2.00;;
17604;SDS011;8921;50.964;6.800;2023-04-03T08:18:47;6.60;;;2.07;;
17604;SDS011;8921;50.964;6.800;2023-04-03T08:21:15;5.23;;;1.87;;
17604;SDS011;8921;50.964;6.800;2023-04-03T08:23:43;5.63;;;1.90;;
17604;SDS011;8921;50.964;6.800;2023-04-03T08:26:13;7.57;;;2.13;;
17604;SDS011;8921;50.964;6.800;2023-04-03T08:28:40;16.50;;;3.10;;
17604;SDS011;8921;50.964;6.800;2023-04-03T08:31:10;10.40;;;2.43;;
17604;SDS011;8921;50.964;6.800;2023-04-03T08:33:37;8.37;;;2.00;;
17604;SDS011;8921;50.964;6.800;2023-04-03T08:36:05;6.47;;;1.70;;
17604;SDS011;8921;50.964;6.800;2023-04-03T08:38:34;5.63;;;1.53;;
17604;SDS011;8921;50.964;6.800;2023-04-03T08:41:14;6.03;;;1.70;;
17604;SDS011;8921;50.964;6.800;2023-04-03T08:43:50;5.87;;;1.90;;
17604;SDS011;8921;50.964;6.800;2023-04-03T08:46:13;4.30;;;1.83;;
17604;SDS011;8921;50.964;6.800;2023-04-03T08:48:41;5.33;;;1.73;;
17604;SDS011;8921;50.964;6.800;2023-04-03T08:51:13;7.13;;;1.43;;
17604;SDS011;8921;50.964;6.800;2023-04-03T08:53:42;6.30;;;1.60;;
17604;SDS011;8921;50.964;6.800;2023-04-03T08:56:09;5.07;;;1.73;;
17604;SDS011;8921;50.964;6.800;2023-04-03T08:58:46;5.57;;;2.07;;
17604;SDS011;8921;50.964;6.800;2023-04-03T09:01:19;6.67;;;1.83;;
17604;SDS011;8921;50.964;6.800;2023-04-03T09:03:45;6.33;;;2.07;;
17604;SDS011;8921;50.964;6.800;2023-04-03T09:06:15;4.93;;;2.30;;
17604;SDS011;8921;50.964;6.800;2023-04-03T09:11:26;5.70;;;1.80;;
17604;SDS011;8921;50.964;6.800;2023-04-03T09:19:49;4.70;;;1.80;;
17604;SDS011;8921;50.964;6.800;2023-04-03T09:21:37;3.33;;;1.43;;
17604;SDS011;8921;50.964;6.800;2023-04-03T09:24:04;5.63;;;1.50;;
17604;SDS011;8921;50.964;6.800;2023-04-03T09:29:24;5.87;;;1.93;;
17604;SDS011;8921;50.964;6.800;2023-04-03T09:31:56;5.83;;;2.57;;
17604;SDS011;8921;50.964;6.800;2023-04-03T09:34:31;5.57;;;1.60;;
17604;SDS011;8921;50.964;6.800;2023-04-03T09:37:00;11.40;;;2.60;;
17604;SDS011;8921;50.964;6.800;2023-04-03T09:39:29;3.93;;;1.50;;
17604;SDS011;8921;50.964;6.800;2023-04-03T09:42:04;5.73;;;2.07;;
17604;SDS011;8921;50.964;6.800;2023-04-03T09:44:34;5.03;;;1.40;;
17604;SDS011;8921;50.964;6.800;2023-04-03T09:47:00;6.67;;;2.07;;
17604;SDS011;8921;50.964;6.800;2023-04-03T09:49:28;6.20;;;1.63;;
17604;SDS011;8921;50.964;6.800;2023-04-03T09:51:56;5.40;;;1.83;;
17604;SDS011;8921;50.964;6.800;2023-04-03T09:54:32;7.53;;;2.13;;
17604;SDS011;8921;50.964;6.800;2023-04-03T09:57:02;4.97;;;1.60;;
17604;SDS011;8921;50.964;6.800;2023-04-03T09:59:30;6.00;;;1.60;;
17604;SDS011;8921;50.964;6.800;2023-04-03T10:01:59;8.03;;;1.70;;
17604;SDS011;8921;50.964;6.800;2023-04-03T10:04:40;5.40;;;1.90;;
17604;SDS011;8921;50.964;6.800;2023-04-03T10:09:57;12.27;;;2.93;;
17604;SDS011;8921;50.964;6.800;2023-04-03T10:12:24;7.77;;;2.03;;
17604;SDS011;8921;50.964;6.800;2023-04-03T10:17:27;6.83;;;2.07;;
17604;SDS011;8921;50.964;6.800;2023-04-03T10:23:21;4.23;;;1.50;;
17604;SDS011;8921;50.964;6.800;2023-04-03T10:39:21;4.67;;;1.40;;
17604;SDS011;8921;50.964;6.800;2023-04-03T10:52:57;7.70;;;1.50;;
17604;SDS011;8921;50.964;6.800;2023-04-03T10:55:34;4.57;;;1.80;;
17604;SDS011;8921;50.964;6.800;2023-04-03T10:58:00;4.40;;;1.73;;
17604;SDS011;8921;50.964;6.800;2023-04-03T11:00:33;4.03;;;1.53;;
17604;SDS011;8921;50.964;6.800;2023-04-03T11:03:02;4.97;;;1.50;;
17604;SDS011;8921;50.964;6.800;2023-04-03T11:05:34;3.40;;;1.20;;
17604;SDS011;8921;50.964;6.800;2023-04-03T11:08:01;6.43;;;1.40;;
17604;SDS011;8921;50.964;6.800;2023-04-03T11:10:40;4.87;;;1.43;;
17604;SDS011;8921;50.964;6.800;2023-04-03T11:13:11;5.40;;;1.50;;
17604;SDS011;8921;50.964;6.800;2023-04-03T11:15:42;3.90;;;1.20;;
17604;SDS011;8921;50.964;6.800;2023-04-03T11:18:13;7.50;;;1.40;;
17604;SDS011;8921;50.964;6.800;2023-04-03T11:20:38;13.77;;;2.20;;
17604;SDS011;8921;50.964;6.800;2023-04-03T11:23:12;5.40;;;1.87;;
17604;SDS011;8921;50.964;6.800;2023-04-03T11:25:35;5.00;;;1.60;;
17604;SDS011;8921;50.964;6.800;2023-04-03T11:28:05;6.23;;;2.00;;
17604;SDS011;8921;50.964;6.800;2023-04-03T11:30:39;7.63;;;1.57;;
17604;SDS011;8921;50.964;6.800;2023-04-03T11:36:09;5.43;;;1.33;;
17604;SDS011;8921;50.964;6.800;2023-04-03T11:38:38;13.03;;;1.90;;
17604;SDS011;8921;50.964;6.800;2023-04-03T11:41:05;4.37;;;1.70;;
17604;SDS011;8921;50.964;6.800;2023-04-03T11:43:33;4.90;;;1.50;;
17604;SDS011;8921;50.964;6.800;2023-04-03T11:46:02;5.97;;;1.80;;
17604;SDS011;8921;50.964;6.800;2023-04-03T11:50:58;3.90;;;1.57;;
17604;SDS011;8921;50.964;6.800;2023-04-03T11:53:30;5.70;;;1.40;;
17604;SDS011;8921;50.964;6.800;2023-04-03T11:56:27;3.40;;;1.30;;
17604;SDS011;8921;50.964;6.800;2023-04-03T11:58:32;3.77;;;1.30;;
17604;SDS011;8921;50.964;6.800;2023-04-03T12:01:00;6.63;;;1.43;;
17604;SDS011;8921;50.964;6.800;2023-04-03T12:26:28;3.83;;;1.23;;
17604;SDS011;8921;50.964;6.800;2023-04-03T12:28:55;3.50;;;1.30;;
17604;SDS011;8921;50.964;6.800;2023-04-03T12:31:24;4.00;;;1.50;;
17604;SDS011;8921;50.964;6.800;2023-04-03T12:33:57;5.20;;;1.37;;
17604;SDS011;8921;50.964;6.800;2023-04-03T12:36:41;5.13;;;1.30;;
17604;SDS011;8921;50.964;6.800;2023-04-03T12:44:48;5.00;;;1.47;;
17604;SDS011;8921;50.964;6.800;2023-04-03T12:47:33;4.60;;;1.70;;
17604;SDS011;8921;50.964;6.800;2023-04-03T12:49:52;6.23;;;1.47;;
17604;SDS011;8921;50.964;6.800;2023-04-03T12:52:24;4.10;;;1.30;;
17604;SDS011;8921;50.964;6.800;2023-04-03T12:54:50;3.67;;;1.60;;
17604;SDS011;8921;50.964;6.800;2023-04-03T12:57:20;4.40;;;1.30;;
17604;SDS011;8921;50.964;6.800;2023-04-03T12:59:47;5.93;;;1.50;;
17604;SDS011;8921;50.964;6.800;2023-04-03T13:02:17;5.00;;;1.30;;
17604;SDS011;8921;50.964;6.800;2023-04-03T13:04:58;5.30;;;1.50;;
17604;SDS011;8921;50.964;6.800;2023-04-03T13:07:33;5.47;;;1.20;;
17604;SDS011;8921;50.964;6.800;2023-04-03T13:12:35;3.50;;;1.40;;
17604;SDS011;8921;50.964;6.800;2023-04-03T13:15:23;3.60;;;1.30;;
17604;SDS011;8921;50.964;6.800;2023-04-03T13:17:49;6.50;;;1.50;;
17604;SDS011;8921;50.964;6.800;2023-04-03T13:22:49;9.77;;;1.57;;
17604;SDS011;8921;50.964;6.800;2023-04-03T13:25:16;5.43;;;1.83;;
17604;SDS011;8921;50.964;6.800;2023-04-03T13:27:44;5.60;;;2.03;;
17604;SDS011;8921;50.964;6.800;2023-04-03T13:33:00;3.17;;;1.13;;
17604;SDS011;8921;50.964;6.800;2023-04-03T13:35:35;4.23;;;1.30;;
17604;SDS011;8921;50.964;6.800;2023-04-03T13:38:04;5.77;;;2.60;;
17604;SDS011;8921;50.964;6.800;2023-04-03T13:40:29;5.83;;;2.30;;
17604;SDS011;8921;50.964;6.800;2023-04-03T13:43:00;4.07;;;1.40;;
17604;SDS011;8921;50.964;6.800;2023-04-03T13:45:27;4.60;;;1.17;;
17604;SDS011;8921;50.964;6.800;2023-04-03T13:48:07;4.17;;;1.40;;
17604;SDS011;8921;50.964;6.800;2023-04-03T13:50:41;4.00;;;1.10;;
17604;SDS011;8921;50.964;6.800;2023-04-03T13:53:12;12.70;;;2.10;;
17604;SDS011;8921;50.964;6.800;2023-04-03T13:55:57;5.57;;;2.53;;
17604;SDS011;8921;50.964;6.800;2023-04-03T13:58:27;3.93;;;1.43;;
17604;SDS011;8921;50.964;6.800;2023-04-03T14:03:45;5.00;;;1.60;;
17604;SDS011;8921;50.964;6.800;2023-04-03T14:06:13;4.33;;;1.50;;
17604;SDS011;8921;50.964;6.800;2023-04-03T14:08:40;4.27;;;1.33;;
17604;SDS011;8921;50.964;6.800;2023-04-03T14:11:13;3.77;;;1.40;;
17604;SDS011;8921;50.964;6.800;2023-04-03T14:13:49;4.53;;;1.40;;
17604;SDS011;8921;50.964;6.800;2023-04-03T14:16:23;5.23;;;1.50;;
17604;SDS011;8921;50.964;6.800;2023-04-03T14:18:51;3.43;;;1.40;;
17604;SDS011;8921;50.964;6.800;2023-04-03T14:21:19;6.00;;;1.77;;
17604;SDS011;8921;50.964;6.800;2023-04-03T14:23:47;5.63;;;1.53;;
17604;SDS011;8921;50.964;6.800;2023-04-03T14:26:17;5.30;;;1.93;;
17604;SDS011;8921;50.964;6.800;2023-04-03T14:28:47;5.70;;;1.73;;
17604;SDS011;8921;50.964;6.800;2023-04-03T14:31:14;4.43;;;1.50;;
17604;SDS011;8921;50.964;6.800;2023-04-03T14:33:43;4.00;;;1.47;;
17604;SDS011;8921;50.964;6.800;2023-04-03T14:36:15;4.63;;;1.70;;
17604;SDS011;8921;50.964;6.800;2023-04-03T14:38:43;8.10;;;2.10;;
17604;SDS011;8921;50.964;6.800;2023-04-03T14:41:13;7.00;;;1.73;;
17604;SDS011;8921;50.964;6.800;2023-04-03T14:43:41;5.80;;;1.70;;
17604;SDS011;8921;50.964;6.800;2023-04-03T14:46:16;4.53;;;1.60;;
17604;SDS011;8921;50.964;6.800;2023-04-03T14:48:41;4.90;;;1.70;;
17604;SDS011;8921;50.964;6.800;2023-04-03T14:51:10;4.80;;;1.87;;
17604;SDS011;8921;50.964;6.800;2023-04-03T14:53:38;6.00;;;1.60;;
17604;SDS011;8921;50.964;6.800;2023-04-03T14:56:13;7.60;;;1.70;;
17604;SDS011;8921;50.964;6.800;2023-04-03T14:58:40;8.47;;;1.80;;
17604;SDS011;8921;50.964;6.800;2023-04-03T15:01:11;4.43;;;1.60;;
17604;SDS011;8921;50.964;6.800;2023-04-03T15:03:39;3.83;;;1.37;;
17604;SDS011;8921;50.964;6.800;2023-04-03T15:06:09;4.53;;;1.70;;
17604;SDS011;8921;50.964;6.800;2023-04-03T15:08:36;10.20;;;1.57;;
17604;SDS011;8921;50.964;6.800;2023-04-03T15:11:04;4.03;;;1.80;;
17604;SDS011;8921;50.964;6.800;2023-04-03T15:13:32;3.93;;;1.47;;
17604;SDS011;8921;50.964;6.800;2023-04-03T15:16:00;4.40;;;1.70;;
17604;SDS011;8921;50.964;6.800;2023-04-03T15:18:30;4.73;;;1.77;;
17604;SDS011;8921;50.964;6.800;2023-04-03T15:20:57;5.23;;;1.70;;
17604;SDS011;8921;50.964;6.800;2023-04-03T15:23:25;6.50;;;1.70;;
17604;SDS011;8921;50.964;6.800;2023-04-03T15:25:54;5.27;;;1.77;;
17604;SDS011;8921;50.964;6.800;2023-04-03T15:28:30;7.60;;;2.07;;
17604;SDS011;8921;50.964;6.800;2023-04-03T15:30:56;4.10;;;1.63;;
17604;SDS011;8921;50.964;6.800;2023-04-03T15:33:25;7.00;;;1.70;;
17604;SDS011;8921;50.964;6.800;2023-04-03T15:35:53;5.23;;;1.93;;
17604;SDS011;8921;50.964;6.800;2023-04-03T15:38:21;9.40;;;2.13;;
17604;SDS011;8921;50.964;6.800;2023-04-03T15:40:49;3.60;;;1.53;;
17604;SDS011;8921;50.964;6.800;2023-04-03T15:43:18;5.63;;;2.00;;
17604;SDS011;8921;50.964;6.800;2023-04-03T15:45:46;8.47;;;1.40;;
17604;SDS011;8921;50.964;6.800;2023-04-03T15:48:14;4.20;;;1.70;;
17604;SDS011;8921;50.964;6.800;2023-04-03T15:50:42;4.70;;;1.40;;
17604;SDS011;8921;50.964;6.800;2023-04-03T15:53:11;5.93;;;2.23;;
17604;SDS011;8921;50.964;6.800;2023-04-03T15:55:39;7.97;;;1.70;;
17604;SDS011;8921;50.964;6.800;2023-04-03T15:58:07;5.33;;;2.17;;
17604;SDS011;8921;50.964;6.800;2023-04-03T16:00:36;3.77;;;1.50;;
17604;SDS011;8921;50.964;6.800;2023-04-03T16:03:05;13.03;;;1.73;;
17604;SDS011;8921;50.964;6.800;2023-04-03T16:05:32;5.57;;;2.07;;
17604;SDS011;8921;50.964;6.800;2023-04-03T16:08:00;5.47;;;1.93;;
17604;SDS011;8921;50.964;6.800;2023-04-03T16:10:29;4.37;;;1.70;;
17604;SDS011;8921;50.964;6.800;2023-04-03T16:12:57;4.30;;;1.70;;
17604;SDS011;8921;50.964;6.800;2023-04-03T16:15:25;4.90;;;1.77;;
17604;SDS011;8921;50.964;6.800;2023-04-03T16:17:53;10.43;;;1.40;;
17604;SDS011;8921;50.964;6.800;2023-04-03T16:20:22;5.67;;;1.70;;
17604;SDS011;8921;50.964;6.800;2023-04-03T16:22:50;6.00;;;2.00;;
17604;SDS011;8921;50.964;6.800;2023-04-03T16:25:18;4.23;;;1.27;;
17604;SDS011;8921;50.964;6.800;2023-04-03T16:27:47;7.90;;;1.77;;
17604;SDS011;8921;50.964;6.800;2023-04-03T16:30:15;6.60;;;2.30;;
17604;SDS011;8921;50.964;6.800;2023-04-03T16:32:43;4.80;;;1.53;;
17604;SDS011;8921;50.964;6.800;2023-04-03T16:35:11;5.27;;;1.67;;
17604;SDS011;8921;50.964;6.800;2023-04-03T16:37:40;4.77;;;1.97;;
17604;SDS011;8921;50.964;6.800;2023-04-03T16:40:08;4.63;;;1.47;;